sensor_id;sensor_type;location;lat;lon;timestamp;P1;durP1;ratioP1;P2;durP2;ratioP2
9918;SDS011;4998;51.024;13.828;2023-04-24T00:00:59;2.70;;;2.50;;
9918;SDS011;4998;51.024;13.828;2023-04-24T00:03:26;2.77;;;2.57;;
9918;SDS011;4998;51.024;13.828;2023-04-24T00:05:54;3.13;;;2.90;;
9918;SDS011;4998;51.024;13.828;2023-04-24T00:08:21;2.60;;;2.40;;
9918;SDS011;4998;51.024;13.828;2023-04-24T00:10:48;2.97;;;2.77;;
9918;SDS011;4998;51.024;13.828;2023-04-24T00:13:18;3.63;;;2.83;;
9918;SDS011;4998;51.024;13.828;2023-04-24T00:15:45;2.50;;;2.30;;
9918;SDS011;4998;51.024;13.828;2023-04-24T00:18:12;3.10;;;2.80;;
9918;SDS011;4998;51.024;13.828;2023-04-24T00:20:39;3.43;;;3.13;;
9918;SDS011;4998;51.024;13.828;2023-04-24T00:23:08;3.13;;;2.93;;
9918;SDS011;4998;51.024;13.828;2023-04-24T00:25:35;2.90;;;2.70;;
9918;SDS011;4998;51.024;13.828;2023-04-24T00:28:02;4.07;;;3.00;;
9918;SDS011;4998;51.024;13.828;2023-04-24T00:30:31;2.83;;;2.53;;
9918;SDS011;4998;51.024;13.828;2023-04-24T00:32:58;3.23;;;2.97;;
9918;SDS011;4998;51.024;13.828;2023-04-24T00:35:25;3.27;;;2.97;;
9918;SDS011;4998;51.024;13.828;2023-04-24T00:37:52;3.53;;;3.23;;
9918;SDS011;4998;51.024;13.828;2023-04-24T00:40:19;3.60;;;3.20;;
9918;SDS011;4998;51.024;13.828;2023-04-24T00:42:47;3.30;;;3.00;;
9918;SDS011;4998;51.024;13.828;2023-04-24T00:45:15;3.10;;;2.80;;
9918;SDS011;4998;51.024;13.828;2023-04-24T00:47:43;3.13;;;2.83;;
9918;SDS011;4998;51.024;13.828;2023-04-24T00:50:13;2.87;;;2.60;;
9918;SDS011;4998;51.024;13.828;2023-04-24T00:52:41;2.73;;;2.53;;
9918;SDS011;4998;51.024;13.828;2023-04-24T00:55:08;3.40;;;2.87;;
9918;SDS011;4998;51.024;13.828;2023-04-24T00:57:35;2.57;;;2.37;;
9918;SDS011;4998;51.024;13.828;2023-04-24T01:00:03;3.20;;;2.80;;
9918;SDS011;4998;51.024;13.828;2023-04-24T01:02:37;2.87;;;2.50;;
9918;SDS011;4998;51.024;13.828;2023-04-24T01:05:10;3.53;;;2.80;;
9918;SDS011;4998;51.024;13.828;2023-04-24T01:07:38;2.60;;;2.40;;
9918;SDS011;4998;51.024;13.828;2023-04-24T01:10:09;4.33;;;2.90;;
9918;SDS011;4998;51.024;13.828;2023-04-24T01:12:36;5.50;;;3.03;;
9918;SDS011;4998;51.024;13.828;2023-04-24T01:15:04;2.97;;;2.67;;
9918;SDS011;4998;51.024;13.828;2023-04-24T01:17:32;2.60;;;2.33;;
9918;SDS011;4998;51.024;13.828;2023-04-24T01:19:59;2.80;;;2.60;;
9918;SDS011;4998;51.024;13.828;2023-04-24T01:22:32;3.30;;;3.00;;
9918;SDS011;4998;51.024;13.828;2023-04-24T01:24:59;2.67;;;2.47;;
9918;SDS011;4998;51.024;13.828;2023-04-24T01:27:27;3.30;;;2.73;;
9918;SDS011;4998;51.024;13.828;2023-04-24T01:29:54;2.93;;;2.63;;
9918;SDS011;4998;51.024;13.828;2023-04-24T01:32:21;3.33;;;3.00;;
9918;SDS011;4998;51.024;13.828;2023-04-24T01:34:48;2.70;;;2.50;;
9918;SDS011;4998;51.024;13.828;2023-04-24T01:37:16;2.90;;;2.70;;
9918;SDS011;4998;51.024;13.828;2023-04-24T01:39:45;3.10;;;2.80;;
9918;SDS011;4998;51.024;13.828;2023-04-24T01:42:12;3.03;;;2.77;;
9918;SDS011;4998;51.024;13.828;2023-04-24T01:44:40;2.87;;;2.67;;
9918;SDS011;4998;51.024;13.828;2023-04-24T01:47:08;2.80;;;2.60;;
9918;SDS011;4998;51.024;13.828;2023-04-24T01:49:35;3.13;;;2.70;;
9918;SDS011;4998;51.024;13.828;2023-04-24T01:52:04;3.10;;;2.80;;
9918;SDS011;4998;51.024;13.828;2023-04-24T01:54:31;3.37;;;3.07;;
9918;SDS011;4998;51.024;13.828;2023-04-24T01:57:00;6.13;;;2.67;;
9918;SDS011;4998;51.024;13.828;2023-04-24T01:59:28;3.17;;;2.97;;
9918;SDS011;4998;51.024;13.828;2023-04-24T02:01:56;3.40;;;3.10;;
9918;SDS011;4998;51.024;13.828;2023-04-24T02:04:23;6.83;;;3.13;;
9918;SDS011;4998;51.024;13.828;2023-04-24T02:06:50;2.97;;;2.77;;
9918;SDS011;4998;51.024;13.828;2023-04-24T02:09:17;3.20;;;3.00;;
9918;SDS011;4998;51.024;13.828;2023-04-24T02:11:44;3.47;;;2.67;;
9918;SDS011;4998;51.024;13.828;2023-04-24T02:14:13;5.23;;;3.00;;
9918;SDS011;4998;51.024;13.828;2023-04-24T02:16:40;3.10;;;2.80;;
9918;SDS011;4998;51.024;13.828;2023-04-24T02:19:07;3.20;;;2.90;;
9918;SDS011;4998;51.024;13.828;2023-04-24T02:21:34;2.93;;;2.63;;
9918;SDS011;4998;51.024;13.828;2023-04-24T02:24:01;3.53;;;3.17;;
9918;SDS011;4998;51.024;13.828;2023-04-24T02:26:29;2.97;;;2.53;;
9918;SDS011;4998;51.024;13.828;2023-04-24T02:28:56;4.23;;;2.80;;
9918;SDS011;4998;51.024;13.828;2023-04-24T02:31:25;2.93;;;2.73;;
9918;SDS011;4998;51.024;13.828;2023-04-24T02:33:52;3.10;;;2.90;;
9918;SDS011;4998;51.024;13.828;2023-04-24T02:36:19;3.50;;;3.20;;
9918;SDS011;4998;51.024;13.828;2023-04-24T02:38:46;4.13;;;2.90;;
9918;SDS011;4998;51.024;13.828;2023-04-24T02:41:13;3.50;;;3.20;;
9918;SDS011;4998;51.024;13.828;2023-04-24T02:43:40;4.53;;;2.63;;
9918;SDS011;4998;51.024;13.828;2023-04-24T02:46:07;3.60;;;3.30;;
9918;SDS011;4998;51.024;13.828;2023-04-24T02:48:35;5.73;;;3.40;;
9918;SDS011;4998;51.024;13.828;2023-04-24T02:51:02;3.40;;;3.07;;
9918;SDS011;4998;51.024;13.828;2023-04-24T02:53:29;3.00;;;2.70;;
9918;SDS011;4998;51.024;13.828;2023-04-24T02:55:56;2.93;;;2.67;;
9918;SDS011;4998;51.024;13.828;2023-04-24T02:58:23;3.30;;;3.00;;
9918;SDS011;4998;51.024;13.828;2023-04-24T03:00:52;3.43;;;3.13;;
9918;SDS011;4998;51.024;13.828;2023-04-24T03:03:20;3.00;;;2.80;;
9918;SDS011;4998;51.024;13.828;2023-04-24T03:05:49;3.73;;;3.43;;
9918;SDS011;4998;51.024;13.828;2023-04-24T03:08:16;3.90;;;3.50;;
9918;SDS011;4998;51.024;13.828;2023-04-24T03:10:43;3.40;;;3.10;;
9918;SDS011;4998;51.024;13.828;2023-04-24T03:13:10;3.23;;;2.90;;
9918;SDS011;4998;51.024;13.828;2023-04-24T03:15:37;3.77;;;3.47;;
9918;SDS011;4998;51.024;13.828;2023-04-24T03:18:04;3.63;;;3.33;;
9918;SDS011;4998;51.024;13.828;2023-04-24T03:20:31;3.80;;;3.20;;
9918;SDS011;4998;51.024;13.828;2023-04-24T03:23:00;3.33;;;3.03;;
9918;SDS011;4998;51.024;13.828;2023-04-24T03:25:27;3.20;;;3.00;;
9918;SDS011;4998;51.024;13.828;2023-04-24T03:27:54;4.33;;;3.50;;
9918;SDS011;4998;51.024;13.828;2023-04-24T03:30:21;3.60;;;3.30;;
9918;SDS011;4998;51.024;13.828;2023-04-24T03:32:48;3.53;;;3.23;;
9918;SDS011;4998;51.024;13.828;2023-04-24T03:35:15;3.80;;;3.50;;
9918;SDS011;4998;51.024;13.828;2023-04-24T03:37:42;4.47;;;3.57;;
9918;SDS011;4998;51.024;13.828;2023-04-24T03:40:11;3.67;;;3.37;;
9918;SDS011;4998;51.024;13.828;2023-04-24T03:42:38;4.20;;;3.50;;
9918;SDS011;4998;51.024;13.828;2023-04-24T03:45:05;5.83;;;3.63;;
9918;SDS011;4998;51.024;13.828;2023-04-24T03:47:33;3.50;;;3.20;;
9918;SDS011;4998;51.024;13.828;2023-04-24T03:50:00;3.90;;;3.53;;
9918;SDS011;4998;51.024;13.828;2023-04-24T03:52:28;3.30;;;2.90;;
9918;SDS011;4998;51.024;13.828;2023-04-24T03:54:55;4.40;;;4.00;;
9918;SDS011;4998;51.024;13.828;2023-04-24T03:57:23;4.03;;;3.63;;
9918;SDS011;4998;51.024;13.828;2023-04-24T03:59:50;5.70;;;3.50;;
9918;SDS011;4998;51.024;13.828;2023-04-24T04:02:18;4.27;;;3.87;;
9918;SDS011;4998;51.024;13.828;2023-04-24T04:04:45;3.80;;;3.50;;
9918;SDS011;4998;51.024;13.828;2023-04-24T04:07:12;4.43;;;4.03;;
9918;SDS011;4998;51.024;13.828;2023-04-24T04:09:40;3.90;;;3.50;;
9918;SDS011;4998;51.024;13.828;2023-04-24T04:12:06;3.73;;;3.43;;
9918;SDS011;4998;51.024;13.828;2023-04-24T04:14:35;4.27;;;3.80;;
9918;SDS011;4998;51.024;13.828;2023-04-24T04:17:02;4.17;;;3.70;;
9918;SDS011;4998;51.024;13.828;2023-04-24T04:19:29;3.80;;;3.50;;
9918;SDS011;4998;51.024;13.828;2023-04-24T04:21:56;3.53;;;3.27;;
9918;SDS011;4998;51.024;13.828;2023-04-24T04:24:24;3.23;;;3.00;;
9918;SDS011;4998;51.024;13.828;2023-04-24T04:26:51;4.43;;;3.93;;
9918;SDS011;4998;51.024;13.828;2023-04-24T04:29:21;4.00;;;3.70;;
9918;SDS011;4998;51.024;13.828;2023-04-24T04:31:50;4.17;;;3.77;;
9918;SDS011;4998;51.024;13.828;2023-04-24T04:34:17;4.00;;;3.60;;
9918;SDS011;4998;51.024;13.828;2023-04-24T04:36:44;3.67;;;3.27;;
9918;SDS011;4998;51.024;13.828;2023-04-24T04:39:11;4.23;;;3.53;;
9918;SDS011;4998;51.024;13.828;2023-04-24T04:41:40;3.67;;;3.17;;
9918;SDS011;4998;51.024;13.828;2023-04-24T04:44:07;4.60;;;2.83;;
9918;SDS011;4998;51.024;13.828;2023-04-24T04:46:34;3.73;;;2.83;;
9918;SDS011;4998;51.024;13.828;2023-04-24T04:49:04;3.63;;;2.73;;
9918;SDS011;4998;51.024;13.828;2023-04-24T04:51:33;2.83;;;2.63;;
9918;SDS011;4998;51.024;13.828;2023-04-24T04:54:00;2.93;;;2.43;;
9918;SDS011;4998;51.024;13.828;2023-04-24T04:56:27;2.70;;;2.50;;
9918;SDS011;4998;51.024;13.828;2023-04-24T04:58:54;2.60;;;2.40;;
9918;SDS011;4998;51.024;13.828;2023-04-24T05:01:21;2.50;;;2.30;;
9918;SDS011;4998;51.024;13.828;2023-04-24T05:03:50;2.60;;;2.40;;
9918;SDS011;4998;51.024;13.828;2023-04-24T05:06:19;3.20;;;2.90;;
9918;SDS011;4998;51.024;13.828;2023-04-24T05:08:45;2.90;;;2.60;;
9918;SDS011;4998;51.024;13.828;2023-04-24T05:11:13;3.80;;;2.63;;
9918;SDS011;4998;51.024;13.828;2023-04-24T05:13:41;4.30;;;2.87;;
9918;SDS011;4998;51.024;13.828;2023-04-24T05:16:08;2.97;;;2.70;;
9918;SDS011;4998;51.024;13.828;2023-04-24T05:18:35;3.00;;;2.80;;
9918;SDS011;4998;51.024;13.828;2023-04-24T05:21:02;2.73;;;2.53;;
9918;SDS011;4998;51.024;13.828;2023-04-24T05:23:30;2.80;;;2.60;;
9918;SDS011;4998;51.024;13.828;2023-04-24T05:25:58;2.53;;;2.33;;
9918;SDS011;4998;51.024;13.828;2023-04-24T05:28:25;2.60;;;2.40;;
9918;SDS011;4998;51.024;13.828;2023-04-24T05:30:53;2.23;;;2.03;;
9918;SDS011;4998;51.024;13.828;2023-04-24T05:33:20;2.37;;;2.17;;
9918;SDS011;4998;51.024;13.828;2023-04-24T05:35:48;2.40;;;2.20;;
9918;SDS011;4998;51.024;13.828;2023-04-24T05:38:16;1.83;;;1.73;;
9918;SDS011;4998;51.024;13.828;2023-04-24T05:40:46;2.50;;;1.90;;
9918;SDS011;4998;51.024;13.828;2023-04-24T05:43:13;3.03;;;2.27;;
9918;SDS011;4998;51.024;13.828;2023-04-24T05:45:40;2.47;;;2.00;;
9918;SDS011;4998;51.024;13.828;2023-04-24T05:48:07;3.37;;;3.07;;
9918;SDS011;4998;51.024;13.828;2023-04-24T05:50:34;4.97;;;3.97;;
9918;SDS011;4998;51.024;13.828;2023-04-24T05:53:01;4.27;;;3.67;;
9918;SDS011;4998;51.024;13.828;2023-04-24T05:55:30;4.33;;;3.93;;
9918;SDS011;4998;51.024;13.828;2023-04-24T05:57:59;4.30;;;3.70;;
9918;SDS011;4998;51.024;13.828;2023-04-24T06:00:26;5.73;;;4.43;;
9918;SDS011;4998;51.024;13.828;2023-04-24T06:02:54;5.03;;;3.90;;
9918;SDS011;4998;51.024;13.828;2023-04-24T06:05:21;3.37;;;2.67;;
9918;SDS011;4998;51.024;13.828;2023-04-24T06:07:48;2.50;;;2.30;;
9918;SDS011;4998;51.024;13.828;2023-04-24T06:10:16;2.63;;;1.90;;
9918;SDS011;4998;51.024;13.828;2023-04-24T06:12:43;2.23;;;1.90;;
9918;SDS011;4998;51.024;13.828;2023-04-24T06:15:12;1.63;;;1.50;;
9918;SDS011;4998;51.024;13.828;2023-04-24T06:17:39;1.53;;;1.37;;
9918;SDS011;4998;51.024;13.828;2023-04-24T06:20:06;1.67;;;1.33;;
9918;SDS011;4998;51.024;13.828;2023-04-24T06:22:36;1.30;;;1.30;;
9918;SDS011;4998;51.024;13.828;2023-04-24T06:25:05;1.50;;;1.40;;
9918;SDS011;4998;51.024;13.828;2023-04-24T06:27:32;1.50;;;1.40;;
9918;SDS011;4998;51.024;13.828;2023-04-24T06:30:00;1.40;;;1.30;;
9918;SDS011;4998;51.024;13.828;2023-04-24T06:32:28;3.27;;;1.57;;
9918;SDS011;4998;51.024;13.828;2023-04-24T06:34:57;1.77;;;1.47;;
9918;SDS011;4998;51.024;13.828;2023-04-24T06:37:24;2.43;;;1.40;;
9918;SDS011;4998;51.024;13.828;2023-04-24T06:39:51;1.43;;;1.33;;
9918;SDS011;4998;51.024;13.828;2023-04-24T06:42:17;5.60;;;1.40;;
9918;SDS011;4998;51.024;13.828;2023-04-24T06:44:46;1.60;;;1.50;;
9918;SDS011;4998;51.024;13.828;2023-04-24T06:47:13;1.47;;;1.37;;
9918;SDS011;4998;51.024;13.828;2023-04-24T06:49:41;5.47;;;1.20;;
9918;SDS011;4998;51.024;13.828;2023-04-24T06:52:08;1.40;;;1.30;;
9918;SDS011;4998;51.024;13.828;2023-04-24T06:54:36;2.50;;;1.20;;
9918;SDS011;4998;51.024;13.828;2023-04-24T06:57:03;4.93;;;1.40;;
9918;SDS011;4998;51.024;13.828;2023-04-24T06:59:31;1.30;;;1.20;;
9918;SDS011;4998;51.024;13.828;2023-04-24T07:01:58;1.10;;;1.10;;
9918;SDS011;4998;51.024;13.828;2023-04-24T07:04:25;1.57;;;1.10;;
9918;SDS011;4998;51.024;13.828;2023-04-24T07:06:54;1.87;;;1.20;;
9918;SDS011;4998;51.024;13.828;2023-04-24T07:09:23;1.13;;;0.83;;
9918;SDS011;4998;51.024;13.828;2023-04-24T07:11:51;0.80;;;0.80;;
9918;SDS011;4998;51.024;13.828;2023-04-24T07:14:19;1.40;;;1.00;;
9918;SDS011;4998;51.024;13.828;2023-04-24T07:16:46;0.80;;;0.80;;
9918;SDS011;4998;51.024;13.828;2023-04-24T07:19:13;0.90;;;0.90;;
9918;SDS011;4998;51.024;13.828;2023-04-24T07:21:40;3.17;;;0.90;;
9918;SDS011;4998;51.024;13.828;2023-04-24T07:24:09;0.80;;;0.80;;
9918;SDS011;4998;51.024;13.828;2023-04-24T07:26:38;1.00;;;1.00;;
9918;SDS011;4998;51.024;13.828;2023-04-24T07:29:05;1.70;;;1.03;;
9918;SDS011;4998;51.024;13.828;2023-04-24T07:31:33;1.07;;;0.97;;
9918;SDS011;4998;51.024;13.828;2023-04-24T07:34:00;1.27;;;1.17;;
9918;SDS011;4998;51.024;13.828;2023-04-24T07:36:28;1.20;;;0.90;;
9918;SDS011;4998;51.024;13.828;2023-04-24T07:38:55;0.90;;;0.90;;
9918;SDS011;4998;51.024;13.828;2023-04-24T07:41:24;1.17;;;1.07;;
9918;SDS011;4998;51.024;13.828;2023-04-24T07:43:52;0.87;;;0.87;;
9918;SDS011;4998;51.024;13.828;2023-04-24T07:46:19;2.53;;;1.00;;
9918;SDS011;4998;51.024;13.828;2023-04-24T07:48:48;1.00;;;1.00;;
9918;SDS011;4998;51.024;13.828;2023-04-24T07:51:15;2.20;;;1.20;;
9918;SDS011;4998;51.024;13.828;2023-04-24T07:53:42;1.53;;;1.00;;
9918;SDS011;4998;51.024;13.828;2023-04-24T07:56:10;0.90;;;0.90;;
9918;SDS011;4998;51.024;13.828;2023-04-24T07:58:38;1.30;;;1.20;;
9918;SDS011;4998;51.024;13.828;2023-04-24T08:01:06;1.47;;;0.90;;
9918;SDS011;4998;51.024;13.828;2023-04-24T08:03:33;1.00;;;0.90;;
9918;SDS011;4998;51.024;13.828;2023-04-24T08:06:00;0.83;;;0.80;;
9918;SDS011;4998;51.024;13.828;2023-04-24T08:08:27;2.13;;;1.07;;
9918;SDS011;4998;51.024;13.828;2023-04-24T08:10:54;1.00;;;0.90;;
9918;SDS011;4998;51.024;13.828;2023-04-24T08:13:21;0.90;;;0.90;;
9918;SDS011;4998;51.024;13.828;2023-04-24T08:15:50;0.90;;;0.90;;
9918;SDS011;4998;51.024;13.828;2023-04-24T08:18:17;2.03;;;1.50;;
9918;SDS011;4998;51.024;13.828;2023-04-24T08:20:44;1.10;;;1.00;;
9918;SDS011;4998;51.024;13.828;2023-04-24T08:23:11;3.80;;;1.10;;
9918;SDS011;4998;51.024;13.828;2023-04-24T08:25:39;1.00;;;0.90;;
9918;SDS011;4998;51.024;13.828;2023-04-24T08:28:06;0.80;;;0.80;;
9918;SDS011;4998;51.024;13.828;2023-04-24T08:30:35;2.13;;;1.00;;
9918;SDS011;4998;51.024;13.828;2023-04-24T08:33:05;0.80;;;0.80;;
9918;SDS011;4998;51.024;13.828;2023-04-24T08:35:32;1.73;;;0.80;;
9918;SDS011;4998;51.024;13.828;2023-04-24T08:37:59;1.13;;;0.83;;
9918;SDS011;4998;51.024;13.828;2023-04-24T08:40:27;2.07;;;0.90;;
9918;SDS011;4998;51.024;13.828;2023-04-24T08:42:55;0.70;;;0.70;;
9918;SDS011;4998;51.024;13.828;2023-04-24T08:45:23;1.00;;;0.90;;
9918;SDS011;4998;51.024;13.828;2023-04-24T08:47:52;0.97;;;0.90;;
9918;SDS011;4998;51.024;13.828;2023-04-24T08:50:21;0.80;;;0.80;;
9918;SDS011;4998;51.024;13.828;2023-04-24T08:52:49;1.00;;;0.90;;
9918;SDS011;4998;51.024;13.828;2023-04-24T08:55:18;0.97;;;0.73;;
9918;SDS011;4998;51.024;13.828;2023-04-24T08:57:49;1.20;;;0.90;;
9918;SDS011;4998;51.024;13.828;2023-04-24T09:00:19;0.83;;;0.83;;
9918;SDS011;4998;51.024;13.828;2023-04-24T09:02:47;0.80;;;0.80;;
9918;SDS011;4998;51.024;13.828;2023-04-24T09:05:16;1.27;;;1.17;;
9918;SDS011;4998;51.024;13.828;2023-04-24T09:07:46;1.27;;;0.80;;
9918;SDS011;4998;51.024;13.828;2023-04-24T09:10:18;0.80;;;0.80;;
9918;SDS011;4998;51.024;13.828;2023-04-24T09:12:46;0.80;;;0.80;;
9918;SDS011;4998;51.024;13.828;2023-04-24T09:15:13;0.60;;;0.60;;
9918;SDS011;4998;51.024;13.828;2023-04-24T09:17:41;0.83;;;0.70;;
9918;SDS011;4998;51.024;13.828;2023-04-24T09:20:08;0.80;;;0.80;;
9918;SDS011;4998;51.024;13.828;2023-04-24T09:22:36;2.10;;;1.77;;
9918;SDS011;4998;51.024;13.828;2023-04-24T09:25:05;1.30;;;1.20;;
9918;SDS011;4998;51.024;13.828;2023-04-24T09:27:34;2.17;;;1.97;;
9918;SDS011;4998;51.024;13.828;2023-04-24T09:30:01;2.93;;;1.20;;
9918;SDS011;4998;51.024;13.828;2023-04-24T09:32:29;1.30;;;1.20;;
9918;SDS011;4998;51.024;13.828;2023-04-24T09:35:06;2.87;;;1.00;;
9918;SDS011;4998;51.024;13.828;2023-04-24T09:37:35;1.07;;;0.97;;
9918;SDS011;4998;51.024;13.828;2023-04-24T09:40:11;0.80;;;0.80;;
9918;SDS011;4998;51.024;13.828;2023-04-24T09:42:43;1.70;;;1.20;;
9918;SDS011;4998;51.024;13.828;2023-04-24T09:45:11;0.97;;;0.80;;
9918;SDS011;4998;51.024;13.828;2023-04-24T09:47:39;0.90;;;0.90;;
9918;SDS011;4998;51.024;13.828;2023-04-24T09:50:10;1.20;;;1.00;;
9918;SDS011;4998;51.024;13.828;2023-04-24T09:52:39;1.17;;;0.80;;
9918;SDS011;4998;51.024;13.828;2023-04-24T09:55:13;0.90;;;0.90;;
9918;SDS011;4998;51.024;13.828;2023-04-24T09:57:53;0.87;;;0.87;;
9918;SDS011;4998;51.024;13.828;2023-04-24T10:00:22;1.00;;;0.90;;
9918;SDS011;4998;51.024;13.828;2023-04-24T10:02:50;0.80;;;0.80;;
9918;SDS011;4998;51.024;13.828;2023-04-24T10:05:22;0.93;;;0.90;;
9918;SDS011;4998;51.024;13.828;2023-04-24T10:07:50;0.70;;;0.70;;
9918;SDS011;4998;51.024;13.828;2023-04-24T10:10:19;1.50;;;1.23;;
9918;SDS011;4998;51.024;13.828;2023-04-24T10:46:29;1.90;;;1.00;;
9918;SDS011;4998;51.024;13.828;2023-04-24T10:48:57;0.93;;;0.93;;
9918;SDS011;4998;51.024;13.828;2023-04-24T10:51:24;0.80;;;0.80;;
9918;SDS011;4998;51.024;13.828;2023-04-24T10:54:27;0.80;;;0.80;;
9918;SDS011;4998;51.024;13.828;2023-04-24T11:00:14;1.13;;;0.90;;
9918;SDS011;4998;51.024;13.828;2023-04-24T11:02:45;0.73;;;0.70;;
9918;SDS011;4998;51.024;13.828;2023-04-24T11:05:18;0.80;;;0.80;;
9918;SDS011;4998;51.024;13.828;2023-04-24T11:10:37;0.83;;;0.80;;
9918;SDS011;4998;51.024;13.828;2023-04-24T11:13:06;4.10;;;0.80;;
9918;SDS011;4998;51.024;13.828;2023-04-24T11:15:33;1.17;;;0.80;;
9918;SDS011;4998;51.024;13.828;2023-04-24T11:18:04;0.77;;;0.77;;
9918;SDS011;4998;51.024;13.828;2023-04-24T11:20:31;0.70;;;0.70;;
9918;SDS011;4998;51.024;13.828;2023-04-24T11:23:00;1.07;;;0.87;;
9918;SDS011;4998;51.024;13.828;2023-04-24T11:25:31;0.80;;;0.80;;
9918;SDS011;4998;51.024;13.828;2023-04-24T11:28:07;6.80;;;1.20;;
9918;SDS011;4998;51.024;13.828;2023-04-24T11:30:41;0.60;;;0.60;;
9918;SDS011;4998;51.024;13.828;2023-04-24T11:33:10;1.23;;;0.80;;
9918;SDS011;4998;51.024;13.828;2023-04-24T11:35:39;0.80;;;0.80;;
9918;SDS011;4998;51.024;13.828;2023-04-24T11:38:06;1.13;;;0.90;;
9918;SDS011;4998;51.024;13.828;2023-04-24T11:40:34;0.83;;;0.83;;
9918;SDS011;4998;51.024;13.828;2023-04-24T11:43:01;0.90;;;0.90;;
9918;SDS011;4998;51.024;13.828;2023-04-24T11:45:29;2.80;;;0.87;;
9918;SDS011;4998;51.024;13.828;2023-04-24T11:47:57;0.80;;;0.80;;
9918;SDS011;4998;51.024;13.828;2023-04-24T11:50:26;1.17;;;0.80;;
9918;SDS011;4998;51.024;13.828;2023-04-24T11:52:54;1.07;;;1.00;;
9918;SDS011;4998;51.024;13.828;2023-04-24T11:55:22;1.17;;;1.07;;
9918;SDS011;4998;51.024;13.828;2023-04-24T11:57:52;0.83;;;0.83;;
9918;SDS011;4998;51.024;13.828;2023-04-24T12:00:22;1.00;;;1.00;;
9918;SDS011;4998;51.024;13.828;2023-04-24T12:02:50;0.97;;;0.90;;
9918;SDS011;4998;51.024;13.828;2023-04-24T12:05:21;1.17;;;1.00;;
9918;SDS011;4998;51.024;13.828;2023-04-24T12:07:55;1.07;;;0.90;;
9918;SDS011;4998;51.024;13.828;2023-04-24T12:10:22;2.60;;;1.10;;
9918;SDS011;4998;51.024;13.828;2023-04-24T12:12:51;1.63;;;0.90;;
9918;SDS011;4998;51.024;13.828;2023-04-24T12:15:19;0.80;;;0.80;;
9918;SDS011;4998;51.024;13.828;2023-04-24T12:17:46;0.80;;;0.80;;
9918;SDS011;4998;51.024;13.828;2023-04-24T12:20:14;0.70;;;0.70;;
9918;SDS011;4998;51.024;13.828;2023-04-24T12:22:44;0.97;;;0.97;;
9918;SDS011;4998;51.024;13.828;2023-04-24T12:25:14;1.17;;;1.07;;
9918;SDS011;4998;51.024;13.828;2023-04-24T12:27:41;0.90;;;0.80;;
9918;SDS011;4998;51.024;13.828;2023-04-24T12:30:10;2.20;;;1.07;;
9918;SDS011;4998;51.024;13.828;2023-04-24T12:32:43;2.77;;;1.00;;
9918;SDS011;4998;51.024;13.828;2023-04-24T12:35:11;1.53;;;0.90;;
9918;SDS011;4998;51.024;13.828;2023-04-24T12:37:41;1.53;;;1.10;;
9918;SDS011;4998;51.024;13.828;2023-04-24T12:40:10;1.00;;;0.90;;
9918;SDS011;4998;51.024;13.828;2023-04-24T12:42:43;0.90;;;0.90;;
9918;SDS011;4998;51.024;13.828;2023-04-24T12:45:11;1.27;;;1.00;;
9918;SDS011;4998;51.024;13.828;2023-04-24T12:47:39;0.90;;;0.90;;
9918;SDS011;4998;51.024;13.828;2023-04-24T12:50:07;0.80;;;0.80;;
9918;SDS011;4998;51.024;13.828;2023-04-24T12:52:35;1.10;;;1.00;;
9918;SDS011;4998;51.024;13.828;2023-04-24T12:55:02;1.00;;;1.00;;
9918;SDS011;4998;51.024;13.828;2023-04-24T12:57:33;1.00;;;1.00;;
9918;SDS011;4998;51.024;13.828;2023-04-24T13:00:03;1.10;;;1.00;;
9918;SDS011;4998;51.024;13.828;2023-04-24T13:02:33;1.20;;;1.00;;
9918;SDS011;4998;51.024;13.828;2023-04-24T13:05:01;1.37;;;1.00;;
9918;SDS011;4998;51.024;13.828;2023-04-24T13:07:28;1.07;;;0.97;;
9918;SDS011;4998;51.024;13.828;2023-04-24T13:09:56;1.50;;;1.00;;
9918;SDS011;4998;51.024;13.828;2023-04-24T13:12:23;0.93;;;0.93;;
9918;SDS011;4998;51.024;13.828;2023-04-24T13:14:51;0.90;;;0.90;;
9918;SDS011;4998;51.024;13.828;2023-04-24T13:17:20;1.00;;;1.00;;
9918;SDS011;4998;51.024;13.828;2023-04-24T13:19:49;1.00;;;1.00;;
9918;SDS011;4998;51.024;13.828;2023-04-24T13:22:17;1.00;;;1.00;;
9918;SDS011;4998;51.024;13.828;2023-04-24T13:24:45;1.00;;;1.00;;
9918;SDS011;4998;51.024;13.828;2023-04-24T13:27:13;1.00;;;1.00;;
9918;SDS011;4998;51.024;13.828;2023-04-24T13:29:40;2.33;;;1.10;;
9918;SDS011;4998;51.024;13.828;2023-04-24T13:32:07;1.00;;;1.00;;
9918;SDS011;4998;51.024;13.828;2023-04-24T13:34:36;0.97;;;0.97;;
9918;SDS011;4998;51.024;13.828;2023-04-24T13:37:03;0.80;;;0.80;;
9918;SDS011;4998;51.024;13.828;2023-04-24T13:39:31;1.00;;;0.90;;
9918;SDS011;4998;51.024;13.828;2023-04-24T13:41:58;1.00;;;0.90;;
9918;SDS011;4998;51.024;13.828;2023-04-24T13:44:25;1.47;;;1.10;;
9918;SDS011;4998;51.024;13.828;2023-04-24T13:46:53;1.00;;;1.00;;
9918;SDS011;4998;51.024;13.828;2023-04-24T13:49:22;1.20;;;1.10;;
9918;SDS011;4998;51.024;13.828;2023-04-24T13:51:52;1.73;;;1.00;;
9918;SDS011;4998;51.024;13.828;2023-04-24T13:54:20;1.07;;;1.07;;
9918;SDS011;4998;51.024;13.828;2023-04-24T13:56:48;1.00;;;1.00;;
9918;SDS011;4998;51.024;13.828;2023-04-24T13:59:15;1.80;;;1.10;;
9918;SDS011;4998;51.024;13.828;2023-04-24T14:01:42;1.20;;;1.10;;
9918;SDS011;4998;51.024;13.828;2023-04-24T14:04:10;5.20;;;0.97;;
9918;SDS011;4998;51.024;13.828;2023-04-24T14:06:37;1.10;;;1.10;;
9918;SDS011;4998;51.024;13.828;2023-04-24T14:09:05;1.20;;;1.10;;
9918;SDS011;4998;51.024;13.828;2023-04-24T14:11:33;1.37;;;1.00;;
9918;SDS011;4998;51.024;13.828;2023-04-24T14:14:00;1.10;;;1.07;;
9918;SDS011;4998;51.024;13.828;2023-04-24T14:16:28;2.63;;;1.20;;
9918;SDS011;4998;51.024;13.828;2023-04-24T14:18:55;1.00;;;1.00;;
9918;SDS011;4998;51.024;13.828;2023-04-24T14:21:22;1.10;;;1.00;;
9918;SDS011;4998;51.024;13.828;2023-04-24T14:23:49;1.13;;;0.90;;
9918;SDS011;4998;51.024;13.828;2023-04-24T14:26:17;1.30;;;1.20;;
9918;SDS011;4998;51.024;13.828;2023-04-24T14:28:45;1.00;;;1.00;;
9918;SDS011;4998;51.024;13.828;2023-04-24T14:31:12;1.07;;;1.07;;
9918;SDS011;4998;51.024;13.828;2023-04-24T14:33:39;1.00;;;1.00;;
9918;SDS011;4998;51.024;13.828;2023-04-24T14:36:07;0.97;;;0.97;;
9918;SDS011;4998;51.024;13.828;2023-04-24T14:38:34;1.43;;;1.00;;
9918;SDS011;4998;51.024;13.828;2023-04-24T14:41:01;6.27;;;1.10;;
9918;SDS011;4998;51.024;13.828;2023-04-24T14:43:35;1.07;;;1.00;;
9918;SDS011;4998;51.024;13.828;2023-04-24T14:46:03;1.60;;;1.50;;
9918;SDS011;4998;51.024;13.828;2023-04-24T14:48:30;1.43;;;1.00;;
9918;SDS011;4998;51.024;13.828;2023-04-24T14:50:57;1.10;;;1.10;;
9918;SDS011;4998;51.024;13.828;2023-04-24T14:53:24;1.07;;;1.07;;
9918;SDS011;4998;51.024;13.828;2023-04-24T14:55:51;1.10;;;1.10;;
9918;SDS011;4998;51.024;13.828;2023-04-24T14:58:18;1.67;;;1.00;;
9918;SDS011;4998;51.024;13.828;2023-04-24T15:00:47;2.90;;;1.47;;
9918;SDS011;4998;51.024;13.828;2023-04-24T15:03:17;1.40;;;1.00;;
9918;SDS011;4998;51.024;13.828;2023-04-24T15:05:46;1.00;;;1.00;;
9918;SDS011;4998;51.024;13.828;2023-04-24T15:08:14;0.93;;;0.90;;
9918;SDS011;4998;51.024;13.828;2023-04-24T15:10:41;3.70;;;1.10;;
9918;SDS011;4998;51.024;13.828;2023-04-24T15:13:08;3.10;;;1.50;;
9918;SDS011;4998;51.024;13.828;2023-04-24T15:15:36;1.10;;;1.10;;
9918;SDS011;4998;51.024;13.828;2023-04-24T15:18:05;1.30;;;1.20;;
9918;SDS011;4998;51.024;13.828;2023-04-24T15:20:33;3.53;;;1.30;;
9918;SDS011;4998;51.024;13.828;2023-04-24T15:23:00;1.00;;;1.00;;
9918;SDS011;4998;51.024;13.828;2023-04-24T15:25:27;1.20;;;1.20;;
9918;SDS011;4998;51.024;13.828;2023-04-24T15:27:54;1.00;;;1.00;;
9918;SDS011;4998;51.024;13.828;2023-04-24T15:30:21;1.03;;;1.03;;
9918;SDS011;4998;51.024;13.828;2023-04-24T15:32:48;1.10;;;1.00;;
9918;SDS011;4998;51.024;13.828;2023-04-24T15:35:16;4.40;;;1.20;;
9918;SDS011;4998;51.024;13.828;2023-04-24T15:37:44;0.90;;;0.90;;
9918;SDS011;4998;51.024;13.828;2023-04-24T15:40:11;0.97;;;0.97;;
9918;SDS011;4998;51.024;13.828;2023-04-24T15:42:41;1.80;;;1.63;;
9918;SDS011;4998;51.024;13.828;2023-04-24T15:45:09;1.20;;;1.20;;